Time;durP1;ratioP1;P1;durP2;ratioP2;P2;SDS_P1;SDS_P2;PMS_P1;PMS_P2;Temp;Humidity;BMP_temperature;BMP_pressure;BME280_temperature;BME280_humidity;BME280_pressure;Samples;Min_cycle;Max_cycle;Signal;HPM_P1;HPM_P2
2022/07/08 00:01:33;;;;;;;11.32;3.35;;;15.00;99.90;;;;;;5052444;28;20036;-42
2022/07/08 00:03:59;;;;;;;11.27;2.60;;;15.00;99.90;;;;;;5052431;28;20383;-50
2022/07/08 00:06:25;;;;;;;10.18;2.70;;;15.00;99.90;;;;;;5051755;28;20029;-52
2022/07/08 00:08:51;;;;;;;10.85;2.70;;;15.00;99.90;;;;;;5052278;28;20031;-56
2022/07/08 00:11:17;;;;;;;9.68;2.80;;;14.90;99.90;;;;;;5050965;28;20025;-57
2022/07/08 00:13:42;;;;;;;10.35;2.63;;;14.90;99.90;;;;;;5052355;28;20061;-60
2022/07/08 00:16:08;;;;;;;10.77;2.85;;;14.80;99.90;;;;;;5052120;28;20108;-39
2022/07/08 00:18:34;;;;;;;9.52;2.80;;;14.80;99.90;;;;;;5051982;28;20076;-42
2022/07/08 00:21:00;;;;;;;7.60;2.60;;;14.70;99.90;;;;;;5052095;28;20439;-39
2022/07/08 00:23:25;;;;;;;9.45;2.97;;;14.70;99.90;;;;;;5052153;28;20048;-39
2022/07/08 00:25:51;;;;;;;6.35;2.45;;;14.70;99.90;;;;;;5052211;28;20052;-49
2022/07/08 00:28:17;;;;;;;7.50;2.50;;;14.70;99.90;;;;;;5051711;28;20205;-57
2022/07/08 00:30:42;;;;;;;8.73;2.75;;;14.70;99.90;;;;;;5051926;28;20056;-46
2022/07/08 00:33:08;;;;;;;11.27;3.28;;;14.70;99.90;;;;;;5051700;28;20032;-45
2022/07/08 00:35:34;;;;;;;6.80;2.60;;;14.60;99.90;;;;;;5051837;28;20029;-52
2022/07/08 00:38:00;;;;;;;7.90;2.53;;;14.60;99.90;;;;;;5051558;28;20032;-46
2022/07/08 00:40:25;;;;;;;10.20;3.20;;;14.60;99.90;;;;;;5051625;28;20052;-51
2022/07/08 00:42:52;;;;;;;8.32;2.70;;;14.60;99.90;;;;;;5051678;28;20025;-50
2022/07/08 00:45:18;;;;;;;11.93;3.42;;;14.60;99.90;;;;;;5051448;28;20044;-56
2022/07/08 00:47:44;;;;;;;8.40;2.97;;;14.60;99.90;;;;;;5051471;28;20025;-51
2022/07/08 00:50:11;;;;;;;8.32;2.60;;;14.50;99.90;;;;;;5051268;28;20028;-55
2022/07/08 00:52:39;;;;;;;9.73;3.47;;;14.50;99.90;;;;;;5051539;28;20040;-53
2022/07/08 00:55:06;;;;;;;9.93;2.95;;;14.50;99.90;;;;;;5051339;28;20028;-41
2022/07/08 00:57:33;;;;;;;7.65;2.55;;;14.50;99.90;;;;;;5051336;28;20039;-41
2022/07/08 00:59:59;;;;;;;7.60;2.55;;;14.50;99.90;;;;;;5050946;28;20041;-50
2022/07/08 01:02:25;;;;;;;8.30;3.08;;;14.40;99.90;;;;;;5051284;28;20040;-57
2022/07/08 01:04:51;;;;;;;5.68;2.45;;;14.40;99.90;;;;;;5066966;28;20056;-53
2022/07/08 01:07:17;;;;;;;11.05;3.45;;;14.50;99.90;;;;;;5049714;28;20025;-55
2022/07/08 01:09:43;;;;;;;8.10;3.10;;;14.40;99.90;;;;;;5050915;28;20479;-45
2022/07/08 01:12:09;;;;;;;11.13;3.00;;;14.40;99.90;;;;;;5051082;28;20031;-50
2022/07/08 01:14:35;;;;;;;11.57;2.80;;;14.30;99.90;;;;;;5051049;28;20021;-51
2022/07/08 01:17:01;;;;;;;8.25;3.05;;;14.30;99.90;;;;;;5050320;28;20709;-56
2022/07/08 01:19:26;;;;;;;9.52;3.17;;;14.30;99.90;;;;;;5050890;28;20029;-47
2022/07/08 01:21:52;;;;;;;6.72;2.58;;;14.20;99.90;;;;;;5051100;28;20651;-59
2022/07/08 01:24:18;;;;;;;6.50;2.47;;;14.20;99.90;;;;;;5051017;28;20032;-55
2022/07/08 01:26:45;;;;;;;10.63;3.10;;;14.20;99.90;;;;;;5050986;28;20083;-54
2022/07/08 01:29:11;;;;;;;6.43;2.30;;;14.20;99.90;;;;;;5050472;28;20040;-45
2022/07/08 01:31:38;;;;;;;9.90;2.60;;;14.10;99.90;;;;;;5050927;28;20060;-57
2022/07/08 01:34:03;;;;;;;8.00;2.75;;;14.10;99.90;;;;;;5051157;28;20029;-55
2022/07/08 01:36:29;;;;;;;6.53;2.25;;;14.10;99.90;;;;;;5050711;28;20395;-50
2022/07/08 01:38:55;;;;;;;9.13;2.50;;;14.10;99.90;;;;;;5050588;28;20029;-58
2022/07/08 01:41:20;;;;;;;8.73;2.65;;;14.00;99.90;;;;;;5049755;28;20075;-59
2022/07/08 01:43:46;;;;;;;6.65;2.30;;;14.00;99.90;;;;;;5050533;28;20052;-52
2022/07/08 01:46:12;;;;;;;7.47;2.20;;;14.00;99.90;;;;;;5049661;28;20029;-59
2022/07/08 01:48:37;;;;;;;6.03;2.40;;;14.00;99.90;;;;;;5050464;28;20029;-47
2022/07/08 01:51:03;;;;;;;5.55;2.28;;;13.90;99.90;;;;;;5050904;28;20479;-58
2022/07/08 01:53:29;;;;;;;6.22;2.22;;;13.90;99.90;;;;;;5050844;28;20033;-47
2022/07/08 01:55:55;;;;;;;5.40;1.92;;;13.90;99.90;;;;;;5050515;28;20025;-53
2022/07/08 01:58:21;;;;;;;8.98;2.38;;;13.90;99.90;;;;;;5050457;28;20067;-51
2022/07/08 02:00:46;;;;;;;8.23;2.70;;;13.80;99.90;;;;;;5050702;28;20029;-55
2022/07/08 02:03:12;;;;;;;5.30;1.90;;;13.80;99.90;;;;;;5050549;28;20031;-52
2022/07/08 02:05:38;;;;;;;6.90;2.20;;;13.70;99.90;;;;;;5050520;28;20025;-53
2022/07/08 02:08:04;;;;;;;5.53;1.92;;;13.70;99.90;;;;;;5050559;28;20491;-52
2022/07/08 02:12:18;;;;;;;5.68;2.10;;;13.60;99.90;;;;;;5050470;28;20029;-56
2022/07/08 02:13:18;;;;;;;4.72;1.83;;;13.60;99.90;;;;;;5050606;28;20037;-52
2022/07/08 02:15:44;;;;;;;5.38;1.90;;;13.60;99.90;;;;;;5050546;28;20111;-56
2022/07/08 02:18:10;;;;;;;7.03;2.20;;;13.60;99.90;;;;;;5050545;28;20080;-52
2022/07/08 02:20:36;;;;;;;5.00;1.65;;;13.60;99.90;;;;;;5050151;28;20025;-54
2022/07/08 02:23:02;;;;;;;5.75;2.22;;;13.50;99.90;;;;;;5048619;28;20033;-48
2022/07/08 02:25:27;;;;;;;6.40;2.20;;;13.60;99.90;;;;;;5050253;28;20128;-55
2022/07/08 02:27:53;;;;;;;5.40;1.90;;;13.50;99.90;;;;;;5050793;28;20021;-51
2022/07/08 02:30:19;;;;;;;3.85;2.00;;;13.50;99.90;;;;;;5053896;28;20048;-58
2022/07/08 02:32:44;;;;;;;3.67;1.83;;;13.40;99.90;;;;;;5054180;28;20541;-48
2022/07/08 02:35:10;;;;;;;6.28;1.80;;;13.40;99.90;;;;;;5054163;28;20433;-55
2022/07/08 02:37:36;;;;;;;4.60;2.15;;;13.40;99.90;;;;;;5054177;28;20025;-54
2022/07/08 02:40:02;;;;;;;7.82;1.90;;;13.40;99.90;;;;;;5053309;28;20024;-58
2022/07/08 02:42:27;;;;;;;4.82;2.00;;;13.40;99.90;;;;;;5054120;28;20071;-57
2022/07/08 02:44:53;;;;;;;5.53;2.00;;;13.30;99.90;;;;;;5054046;28;20029;-49
2022/07/08 02:47:18;;;;;;;6.07;1.90;;;13.30;99.90;;;;;;5053961;28;20033;-56
2022/07/08 02:49:44;;;;;;;3.17;1.80;;;13.30;99.90;;;;;;5053655;28;20396;-51
2022/07/08 02:52:10;;;;;;;4.72;1.90;;;13.30;99.90;;;;;;5053773;28;20495;-52
2022/07/08 02:54:35;;;;;;;4.18;2.08;;;13.30;99.90;;;;;;5053746;28;20447;-53
2022/07/08 02:57:01;;;;;;;5.25;1.77;;;13.20;99.90;;;;;;5053680;28;20029;-53
2022/07/08 02:59:27;;;;;;;5.85;1.90;;;13.20;99.90;;;;;;5053301;28;20041;-57
2022/07/08 03:01:52;;;;;;;3.72;1.60;;;13.10;99.90;;;;;;5053518;28;20021;-57
2022/07/08 03:04:18;;;;;;;6.65;2.20;;;13.10;99.90;;;;;;5053550;28;20044;-53
2022/07/08 03:06:44;;;;;;;4.53;2.17;;;13.10;99.90;;;;;;5053591;28;20364;-46
2022/07/08 03:09:10;;;;;;;6.10;2.05;;;13.10;99.90;;;;;;5053177;28;20025;-49
2022/07/08 03:11:35;;;;;;;5.07;1.75;;;13.10;99.90;;;;;;5053675;28;20032;-48
2022/07/08 03:14:01;;;;;;;5.45;1.67;;;13.00;99.90;;;;;;5053536;28;20387;-55
2022/07/08 03:16:27;;;;;;;4.97;2.08;;;13.00;99.90;;;;;;5053393;28;20112;-58
2022/07/08 03:18:52;;;;;;;5.10;1.85;;;13.00;99.90;;;;;;5052905;28;20040;-52
2022/07/08 03:21:18;;;;;;;3.85;1.80;;;13.00;99.90;;;;;;5068839;28;20033;-59
2022/07/08 03:23:44;;;;;;;4.88;1.80;;;13.00;99.90;;;;;;5053086;28;20044;-49
2022/07/08 03:26:09;;;;;;;4.55;2.30;;;12.90;99.90;;;;;;5053016;28;20029;-53
2022/07/08 03:28:35;;;;;;;3.78;1.90;;;12.90;99.90;;;;;;5052908;28;20056;-49
2022/07/08 03:31:01;;;;;;;5.68;1.50;;;12.90;99.90;;;;;;5052995;28;20029;-53
2022/07/08 03:33:26;;;;;;;6.38;1.73;;;12.90;99.90;;;;;;5053068;28;20032;-57
2022/07/08 03:35:52;;;;;;;4.50;1.70;;;12.90;99.90;;;;;;5053192;28;20035;-54
2022/07/08 03:38:18;;;;;;;5.82;1.98;;;12.80;99.90;;;;;;5052720;28;20025;-54
2022/07/08 03:43:28;;;;;;;5.45;1.60;;;12.80;99.90;;;;;;5053209;28;20036;-49
2022/07/08 03:45:53;;;;;;;6.00;1.98;;;12.80;99.90;;;;;;5052935;28;20033;-52
2022/07/08 03:48:19;;;;;;;6.25;1.98;;;12.70;99.90;;;;;;5052555;28;20033;-47
2022/07/08 03:50:45;;;;;;;4.68;1.80;;;12.70;99.90;;;;;;5050735;28;20027;-50
2022/07/08 03:53:10;;;;;;;4.32;1.60;;;12.60;99.90;;;;;;5052929;28;20037;-54
2022/07/08 03:55:36;;;;;;;4.00;2.05;;;12.60;99.90;;;;;;5052432;28;20029;-54
2022/07/08 03:58:02;;;;;;;6.07;1.92;;;12.60;99.90;;;;;;5052427;28;20044;-57
2022/07/08 04:00:28;;;;;;;5.80;1.65;;;12.60;99.90;;;;;;5040621;28;20036;-56
2022/07/08 04:02:53;;;;;;;6.15;2.03;;;12.60;99.90;;;;;;5052580;28;20445;-49
2022/07/08 04:05:19;;;;;;;4.22;1.70;;;12.60;99.90;;;;;;5052172;28;20086;-52
2022/07/08 04:07:44;;;;;;;6.00;2.22;;;12.60;99.90;;;;;;5052648;28;20048;-41
2022/07/08 04:10:10;;;;;;;7.25;2.53;;;12.60;99.90;;;;;;5052163;28;20475;-58
2022/07/08 04:12:36;;;;;;;4.28;1.88;;;12.60;99.90;;;;;;5052453;28;20024;-59
2022/07/08 04:15:02;;;;;;;3.83;1.75;;;12.60;99.90;;;;;;5052065;28;20031;-57
2022/07/08 04:17:28;;;;;;;3.58;1.70;;;12.60;99.90;;;;;;5052251;28;20032;-53
2022/07/08 04:19:53;;;;;;;4.88;3.05;;;12.60;99.90;;;;;;5051989;28;20032;-56
2022/07/08 04:22:19;;;;;;;5.50;2.13;;;12.70;99.90;;;;;;5052036;28;20514;-57
2022/07/08 04:24:45;;;;;;;5.10;1.90;;;12.70;99.90;;;;;;5051829;28;20368;-54
2022/07/08 04:27:10;;;;;;;7.03;2.17;;;12.70;99.90;;;;;;5052051;28;20048;-50
2022/07/08 04:29:36;;;;;;;5.28;2.17;;;12.80;99.90;;;;;;5051888;28;20021;-40
2022/07/08 04:32:02;;;;;;;6.07;2.42;;;12.70;99.90;;;;;;5052048;28;20090;-53
2022/07/08 04:34:28;;;;;;;6.00;2.47;;;12.80;99.90;;;;;;5051723;28;20361;-52
2022/07/08 04:36:53;;;;;;;4.60;2.22;;;12.80;99.90;;;;;;5051771;28;20036;-55
2022/07/08 04:39:19;;;;;;;6.90;2.63;;;12.80;99.90;;;;;;5052033;28;20044;-51
2022/07/08 04:41:45;;;;;;;6.80;2.83;;;12.90;99.90;;;;;;5051499;28;20415;-52
2022/07/08 04:44:10;;;;;;;6.38;2.85;;;13.00;99.90;;;;;;5051755;28;20450;-53
2022/07/08 04:46:36;;;;;;;6.32;2.70;;;13.00;99.90;;;;;;5051179;28;20100;-46
2022/07/08 04:49:02;;;;;;;8.63;3.13;;;13.10;99.90;;;;;;5051399;28;20021;-51
2022/07/08 04:51:28;;;;;;;9.07;2.90;;;13.20;99.90;;;;;;5051359;28;20025;-55
2022/07/08 04:53:54;;;;;;;5.97;2.80;;;13.20;99.90;;;;;;5051603;28;20192;-48
2022/07/08 04:56:19;;;;;;;5.65;2.72;;;13.30;99.90;;;;;;5051224;28;20021;-40
2022/07/08 04:58:45;;;;;;;7.28;2.85;;;13.30;99.90;;;;;;5051127;28;20415;-39
2022/07/08 05:01:10;;;;;;;8.05;2.65;;;13.40;99.90;;;;;;5051449;28;20017;-39
2022/07/08 05:03:36;;;;;;;8.55;2.60;;;13.50;99.90;;;;;;5051021;28;20178;-49
2022/07/08 05:06:02;;;;;;;10.65;3.40;;;13.60;99.90;;;;;;5050289;28;20025;-50
2022/07/08 05:08:27;;;;;;;10.68;3.42;;;13.60;99.90;;;;;;5050880;28;20029;-42
2022/07/08 05:10:53;;;;;;;12.85;3.20;;;13.70;99.90;;;;;;5050286;28;20013;-50
2022/07/08 05:13:19;;;;;;;14.80;3.67;;;13.80;99.90;;;;;;5050837;28;20360;-55
2022/07/08 05:15:45;;;;;;;10.43;3.83;;;13.90;99.90;;;;;;5050856;28;20383;-51
2022/07/08 05:18:10;;;;;;;14.35;3.72;;;14.00;99.90;;;;;;5050524;28;20398;-58
2022/07/08 05:20:36;;;;;;;16.48;3.67;;;14.00;99.90;;;;;;5050595;28;20056;-51
2022/07/08 05:23:02;;;;;;;18.25;4.22;;;14.10;99.90;;;;;;5050966;28;20066;-59
2022/07/08 05:25:28;;;;;;;16.25;3.88;;;14.20;99.90;;;;;;5050755;28;20025;-56
2022/07/08 05:27:54;;;;;;;15.45;3.88;;;14.30;99.90;;;;;;5050885;28;20025;-55
2022/07/08 05:30:19;;;;;;;15.60;4.22;;;14.50;99.90;;;;;;5050927;28;20025;-54
2022/07/08 05:32:45;;;;;;;12.02;4.05;;;14.60;99.90;;;;;;5050850;28;20040;-61
2022/07/08 05:35:11;;;;;;;14.82;4.28;;;14.70;99.90;;;;;;5050907;28;20032;-49
2022/07/08 05:37:38;;;;;;;10.55;3.97;;;14.70;99.90;;;;;;5050852;28;20415;-53
2022/07/08 05:40:10;;;;;;;11.23;4.05;;;14.80;99.90;;;;;;5050818;28;20357;-57
2022/07/08 05:42:36;;;;;;;13.02;3.88;;;15.00;99.90;;;;;;5050705;28;20219;-48
2022/07/08 05:45:03;;;;;;;10.02;4.38;;;15.20;99.90;;;;;;5050453;28;20040;-40
2022/07/08 05:47:29;;;;;;;10.63;3.88;;;15.30;99.90;;;;;;5050783;28;20036;-39
2022/07/08 05:49:54;;;;;;;9.60;2.72;;;15.60;99.90;;;;;;5050711;28;20033;-39
2022/07/08 05:52:20;;;;;;;12.07;3.10;;;15.70;99.90;;;;;;5050338;28;20083;-48
2022/07/08 05:54:45;;;;;;;8.35;3.10;;;15.80;99.30;;;;;;5046905;28;20029;-44
2022/07/08 05:57:12;;;;;;;11.07;3.80;;;16.00;99.10;;;;;;5049422;28;20029;-44
2022/07/08 05:59:38;;;;;;;10.77;3.53;;;16.20;98.50;;;;;;5049071;28;20080;-43
2022/07/08 06:02:04;;;;;;;9.38;3.95;;;16.60;98.50;;;;;;5050444;28;20450;-42
2022/07/08 06:04:30;;;;;;;16.65;4.78;;;17.30;98.70;;;;;;5053509;28;20031;-42
2022/07/08 06:06:56;;;;;;;14.57;4.55;;;18.00;95.70;;;;;;5054752;28;20025;-39
2022/07/08 06:09:22;;;;;;;13.60;4.68;;;18.30;95.20;;;;;;5054510;28;20499;-57
2022/07/08 06:11:48;;;;;;;7.40;3.45;;;18.70;94.70;;;;;;5052459;28;20025;-57
2022/07/08 06:14:13;;;;;;;6.97;3.67;;;19.40;93.70;;;;;;5052540;28;20070;-48
2022/07/08 06:16:39;;;;;;;9.88;3.40;;;19.60;92.50;;;;;;5052482;28;20025;-51
2022/07/08 06:19:05;;;;;;;9.90;3.65;;;20.20;92.80;;;;;;5052355;28;20079;-58
2022/07/08 06:21:30;;;;;;;9.40;2.95;;;20.90;91.40;;;;;;5052736;28;20083;-40
2022/07/08 06:23:56;;;;;;;8.98;3.40;;;21.60;90.70;;;;;;5052275;28;20474;-52
2022/07/08 06:26:22;;;;;;;7.10;3.28;;;22.40;87.90;;;;;;5053718;28;20017;-57
2022/07/08 06:28:48;;;;;;;7.20;3.25;;;22.90;85.30;;;;;;5054046;28;20036;-49
2022/07/08 06:31:13;;;;;;;8.13;3.15;;;23.30;83.40;;;;;;5054018;28;20522;-54
2022/07/08 06:33:39;;;;;;;6.50;3.40;;;23.70;83.90;;;;;;5053920;28;20405;-38
2022/07/08 06:36:05;;;;;;;10.55;4.30;;;24.10;82.10;;;;;;5053707;28;20148;-47
2022/07/08 06:38:31;;;;;;;8.52;4.10;;;24.50;78.60;;;;;;5066396;28;20059;-41
2022/07/08 06:40:57;;;;;;;8.75;4.00;;;24.90;79.70;;;;;;5053689;28;20532;-45
2022/07/08 06:43:22;;;;;;;8.82;4.40;;;25.40;77.70;;;;;;5053127;28;20491;-38
2022/07/08 06:45:48;;;;;;;7.00;4.30;;;25.80;75.60;;;;;;5049064;28;20024;-47
2022/07/08 06:48:14;;;;;;;10.07;5.07;;;26.10;73.40;;;;;;5051698;28;20028;-52
2022/07/08 06:50:41;;;;;;;15.75;6.38;;;26.40;72.80;;;;;;5051103;28;20357;-49
2022/07/08 06:53:06;;;;;;;8.68;5.07;;;26.70;70.30;;;;;;5046944;28;20123;-59
2022/07/08 06:55:32;;;;;;;8.32;4.45;;;26.90;68.50;;;;;;5048134;28;20555;-52
2022/07/08 06:57:58;;;;;;;8.27;4.80;;;27.20;69.50;;;;;;5052598;28;20025;-45
2022/07/08 07:00:24;;;;;;;8.55;4.38;;;27.20;65.60;;;;;;5052788;28;20120;-56
2022/07/08 07:02:50;;;;;;;8.73;5.18;;;27.30;67.60;;;;;;5052983;28;20427;-50
2022/07/08 07:05:15;;;;;;;9.05;4.95;;;27.40;68.70;;;;;;5053120;28;20025;-49
2022/07/08 07:07:41;;;;;;;9.68;4.38;;;27.50;69.30;;;;;;5053073;28;20420;-47
2022/07/08 07:10:07;;;;;;;8.23;4.35;;;27.90;63.80;;;;;;5052726;28;20031;-57
2022/07/08 07:12:33;;;;;;;9.18;4.95;;;28.40;63.30;;;;;;5053304;28;20443;-56
2022/07/08 07:14:59;;;;;;;7.97;4.60;;;28.50;60.40;;;;;;5051945;28;20029;-48
2022/07/08 07:17:24;;;;;;;6.95;4.28;;;28.60;61.00;;;;;;5052017;28;20441;-50
2022/07/08 07:19:50;;;;;;;6.00;3.83;;;28.80;62.30;;;;;;5053018;28;20566;-46
2022/07/08 07:22:16;;;;;;;5.63;3.22;;;28.90;60.10;;;;;;5052651;28;20025;-46
2022/07/08 07:24:42;;;;;;;6.30;3.22;;;29.20;61.50;;;;;;5053250;28;20045;-55
2022/07/08 07:27:08;;;;;;;6.10;3.03;;;29.40;59.50;;;;;;5052911;28;20043;-44
2022/07/08 07:29:34;;;;;;;6.72;3.70;;;29.50;58.90;;;;;;5053170;28;20079;-51
2022/07/08 07:32:00;;;;;;;5.55;3.30;;;29.40;58.50;;;;;;5052785;28;20044;-52
2022/07/08 07:34:26;;;;;;;6.03;3.20;;;29.50;59.50;;;;;;5053014;28;20037;-42
2022/07/08 07:36:52;;;;;;;7.90;3.78;;;29.80;57.00;;;;;;5052603;28;20168;-47
2022/07/08 07:39:19;;;;;;;5.97;3.25;;;30.10;55.70;;;;;;5052707;28;20036;-46
2022/07/08 07:41:44;;;;;;;7.00;3.30;;;30.20;56.20;;;;;;5052665;28;20028;-51
2022/07/08 07:44:10;;;;;;;5.18;2.60;;;30.20;53.60;;;;;;5052746;28;20041;-51
2022/07/08 07:46:36;;;;;;;7.18;3.20;;;30.40;54.10;;;;;;5052649;28;20430;-52
2022/07/08 07:49:02;;;;;;;5.43;3.13;;;30.70;52.20;;;;;;5052638;28;20044;-58
2022/07/08 07:51:28;;;;;;;8.10;3.38;;;31.30;52.70;;;;;;5052430;28;20032;-48
2022/07/08 07:53:54;;;;;;;5.00;2.75;;;31.00;51.70;;;;;;5052668;28;20029;-53
2022/07/08 07:56:20;;;;;;;5.28;2.75;;;31.20;53.70;;;;;;5052775;28;20025;-48
2022/07/08 07:58:46;;;;;;;5.35;3.17;;;31.50;52.70;;;;;;5052207;28;20041;-44
2022/07/08 08:01:12;;;;;;;6.75;2.70;;;31.50;52.70;;;;;;5052798;28;20337;-52
2022/07/08 08:03:37;;;;;;;5.90;2.90;;;32.00;51.40;;;;;;5052149;28;20506;-43
2022/07/08 08:06:04;;;;;;;7.35;3.38;;;32.10;48.30;;;;;;5050321;28;20029;-47
2022/07/08 08:08:31;;;;;;;6.15;3.10;;;32.10;47.10;;;;;;5050308;28;20348;-50
2022/07/08 08:10:58;;;;;;;5.47;2.88;;;32.40;50.40;;;;;;5050379;28;20128;-49
2022/07/08 08:13:24;;;;;;;5.10;2.38;;;32.60;48.20;;;;;;5051044;28;20037;-54
2022/07/08 08:15:49;;;;;;;5.32;2.72;;;33.00;49.70;;;;;;5050909;28;20112;-46
2022/07/08 08:18:15;;;;;;;7.78;3.33;;;33.50;48.10;;;;;;5052225;28;20033;-46
2022/07/08 08:20:42;;;;;;;5.53;3.08;;;33.90;45.80;;;;;;5052107;28;20025;-45
2022/07/08 08:23:08;;;;;;;8.25;3.45;;;33.70;43.80;;;;;;5050925;28;20036;-51
2022/07/08 08:25:34;;;;;;;6.63;3.40;;;33.70;46.00;;;;;;5051289;28;20057;-49
2022/07/08 08:28:00;;;;;;;5.90;3.00;;;33.90;43.40;;;;;;5051603;28;20052;-52
2022/07/08 08:30:25;;;;;;;8.50;3.78;;;33.70;45.60;;;;;;5052147;28;20104;-48
2022/07/08 08:32:51;;;;;;;7.85;3.10;;;33.90;42.20;;;;;;5051526;28;20426;-53
2022/07/08 08:35:17;;;;;;;5.57;2.83;;;33.80;43.60;;;;;;5050865;28;20025;-51
2022/07/08 08:37:42;;;;;;;6.35;3.08;;;33.80;46.10;;;;;;5049898;28;20540;-46
2022/07/08 08:40:10;;;;;;;7.28;3.30;;;33.50;43.30;;;;;;5051795;28;20096;-52
2022/07/08 08:42:37;;;;;;;5.95;3.05;;;32.90;45.50;;;;;;5051606;28;20033;-46
2022/07/08 08:45:04;;;;;;;7.18;3.63;;;32.90;46.80;;;;;;5051600;28;20029;-47
2022/07/08 08:47:32;;;;;;;5.93;3.28;;;32.60;45.30;;;;;;5051682;28;20071;-46
2022/07/08 08:50:53;;;;;;;5.07;3.13;;;32.80;46.10;;;;;;5045284;28;20032;-48
2022/07/08 08:52:51;;;;;;;7.13;3.78;;;32.50;45.80;;;;;;5045261;28;20021;-55
2022/07/08 08:55:24;;;;;;;7.47;3.30;;;31.60;47.90;;;;;;5050107;28;20114;-47
2022/07/08 08:57:50;;;;;;;4.70;2.97;;;30.70;49.30;;;;;;5046900;28;20021;-47
2022/07/08 09:00:16;;;;;;;6.07;3.20;;;30.70;52.70;;;;;;5049152;28;20510;-57
2022/07/08 09:02:42;;;;;;;5.38;3.25;;;31.10;51.50;;;;;;5049187;28;20103;-56
2022/07/08 09:05:08;;;;;;;4.97;3.22;;;31.70;49.50;;;;;;5045497;28;20438;-61
2022/07/08 09:07:35;;;;;;;7.18;4.03;;;32.10;47.60;;;;;;5049428;28;20048;-55
2022/07/08 09:10:01;;;;;;;6.70;3.47;;;31.60;47.00;;;;;;5049370;28;20032;-55
2022/07/08 09:12:27;;;;;;;5.60;2.70;;;31.80;50.20;;;;;;5049992;28;20029;-59
2022/07/08 09:14:54;;;;;;;7.10;3.67;;;32.20;50.50;;;;;;5049590;28;20083;-49
2022/07/08 09:17:21;;;;;;;8.07;3.80;;;31.30;46.00;;;;;;5049486;28;20075;-51
2022/07/08 09:19:49;;;;;;;6.35;2.92;;;30.80;48.60;;;;;;5049625;28;20108;-58
2022/07/08 09:22:14;;;;;;;6.00;3.03;;;31.10;50.30;;;;;;5049351;28;20056;-58
2022/07/08 09:24:40;;;;;;;6.78;3.10;;;31.30;50.10;;;;;;5049412;28;20048;-55
2022/07/08 09:27:08;;;;;;;7.32;3.33;;;31.70;50.20;;;;;;5046768;28;20442;-59
2022/07/08 09:29:34;;;;;;;9.23;3.67;;;32.10;48.70;;;;;;5048524;28;20039;-41
2022/07/08 09:32:14;;;;;;;6.10;3.55;;;32.30;51.30;;;;;;5048040;28;20021;-58
2022/07/08 09:34:43;;;;;;;5.13;3.30;;;32.40;48.90;;;;;;5048880;28;20047;-49
2022/07/08 09:37:12;;;;;;;;;;;32.60;50.20;;;;;;5050061;28;20029;-39
2022/07/08 09:39:38;;;;;;;8.27;3.88;;;32.60;46.30;;;;;;5048290;28;19905;-42
2022/07/08 09:42:08;;;;;;;7.65;4.05;;;32.70;50.00;;;;;;5061459;28;20036;-40
2022/07/08 09:44:34;;;;;;;8.60;4.40;;;32.30;45.20;;;;;;5045191;28;20514;-42
2022/07/08 09:47:00;;;;;;;7.13;4.32;;;32.00;47.00;;;;;;5048347;28;20092;-47
2022/07/08 09:49:27;;;;;;;7.53;4.05;;;32.00;46.40;;;;;;5048969;28;20124;-49
2022/07/08 09:51:53;;;;;;;6.65;4.00;;;31.90;50.00;;;;;;5049380;28;20024;-51
2022/07/08 09:54:21;;;;;;;7.63;3.80;;;31.70;49.10;;;;;;5049034;28;20032;-59
2022/07/08 09:57:08;;;;;;;6.68;4.60;;;31.70;48.60;;;;;;5049550;28;20021;-54
2022/07/08 09:59:35;;;;;;;5.60;3.78;;;31.10;48.20;;;;;;5039740;28;20049;-49
2022/07/08 10:02:03;;;;;;;7.13;3.87;;;30.90;49.20;;;;;;5050159;28;20021;-55
2022/07/08 10:04:29;;;;;;;7.35;4.50;;;30.90;51.20;;;;;;5048316;28;20044;-57
2022/07/08 10:06:56;;;;;;;6.85;4.40;;;31.30;49.50;;;;;;5050432;28;20021;-50
2022/07/08 10:09:23;;;;;;;7.95;3.70;;;31.60;50.20;;;;;;5045300;28;20029;-53
2022/07/08 10:11:50;;;;;;;6.15;3.92;;;32.10;51.30;;;;;;5049022;28;20033;-50
2022/07/08 10:14:16;;;;;;;6.53;4.22;;;32.50;46.70;;;;;;5049040;28;20120;-45
2022/07/08 10:16:45;;;;;;;8.10;4.00;;;32.40;46.30;;;;;;5049037;28;20025;-52
2022/07/08 10:19:21;;;;;;;5.65;3.38;;;32.30;48.90;;;;;;5048891;28;20399;-48
2022/07/08 10:21:52;;;;;;;6.25;3.33;;;32.70;48.70;;;;;;5049339;28;20029;-57
2022/07/08 10:24:22;;;;;;;7.05;3.72;;;32.70;46.10;;;;;;5049041;28;20033;-51
2022/07/08 10:26:48;;;;;;;8.80;4.13;;;33.20;45.10;;;;;;5046540;28;20349;-49
2022/07/08 10:29:14;;;;;;;8.82;4.07;;;33.40;46.50;;;;;;5048676;28;20027;-49
2022/07/08 10:31:51;;;;;;;7.97;5.38;;;33.10;44.40;;;;;;5048633;28;20017;-49
2022/07/08 10:34:19;;;;;;;6.93;4.35;;;33.20;42.80;;;;;;5048724;28;20040;-53
2022/07/08 10:36:53;;;;;;;5.82;3.72;;;32.80;44.10;;;;;;5049152;28;20025;-48
2022/07/08 10:39:29;;;;;;;5.72;3.97;;;32.20;45.10;;;;;;5048917;28;20252;-45
2022/07/08 10:42:02;;;;;;;6.88;3.97;;;32.20;46.40;;;;;;5063764;28;20017;-53
2022/07/08 10:44:43;;;;;;;8.52;6.35;;;31.90;45.80;;;;;;5047274;28;20037;-44
2022/07/08 10:47:29;;;;;;;6.97;4.70;;;31.70;48.80;;;;;;5047593;28;20506;-47
2022/07/08 10:50:07;;;;;;;6.80;5.20;;;31.70;49.00;;;;;;5049354;28;20483;-51
2022/07/08 10:52:41;;;;;;;6.00;4.30;;;31.90;47.00;;;;;;5052036;28;20028;-51
2022/07/08 10:55:09;;;;;;;7.25;4.75;;;31.40;46.60;;;;;;5051891;28;20064;-46
2022/07/08 10:57:35;;;;;;;6.72;4.57;;;31.30;45.30;;;;;;5052080;28;20544;-43
2022/07/08 11:00:13;;;;;;;6.80;4.05;;;31.60;46.40;;;;;;5048392;28;20227;-57
2022/07/08 11:02:44;;;;;;;6.68;3.65;;;32.00;46.20;;;;;;5052184;28;20029;-56
2022/07/08 11:05:35;;;;;;;8.35;4.75;;;32.10;47.50;;;;;;5053532;28;20044;-57
2022/07/08 11:08:19;;;;;;;5.75;4.85;;;32.00;46.90;;;;;;5053661;28;20064;-52
2022/07/08 11:10:45;;;;;;;8.07;4.68;;;31.90;45.90;;;;;;5053578;28;20013;-49
2022/07/08 11:13:11;;;;;;;6.90;4.45;;;31.70;47.90;;;;;;5053472;28;20082;-46
2022/07/08 11:15:37;;;;;;;6.32;4.40;;;31.60;46.20;;;;;;5052006;28;20041;-42
2022/07/08 11:18:03;;;;;;;5.70;4.03;;;31.50;48.80;;;;;;5053411;28;20016;-43
2022/07/08 11:20:32;;;;;;;6.15;4.32;;;31.60;51.30;;;;;;5053306;28;20163;-52
2022/07/08 11:23:03;;;;;;;6.10;4.80;;;31.70;46.60;;;;;;5053018;28;20399;-53
2022/07/08 11:25:30;;;;;;;7.00;4.63;;;31.80;48.70;;;;;;5053372;28;20036;-56
2022/07/08 11:27:55;;;;;;;7.68;4.53;;;31.60;45.90;;;;;;5052202;28;20021;-50
2022/07/08 11:30:21;;;;;;;5.00;4.05;;;31.30;44.30;;;;;;5052250;28;20031;-58
2022/07/08 11:32:48;;;;;;;4.60;3.40;;;31.40;47.70;;;;;;5052740;28;20100;-49
2022/07/08 11:35:14;;;;;;;6.25;3.78;;;31.70;49.70;;;;;;5052016;28;20017;-51
2022/07/08 11:37:40;;;;;;;7.18;3.70;;;32.00;45.90;;;;;;5052659;28;20103;-47
2022/07/08 11:40:07;;;;;;;5.20;3.67;;;32.20;46.60;;;;;;5052820;28;20029;-42
2022/07/08 11:42:36;;;;;;;4.97;3.50;;;32.30;45.20;;;;;;5052967;28;20074;-47
2022/07/08 11:45:07;;;;;;;7.03;4.25;;;32.20;44.20;;;;;;5052696;28;20029;-48
2022/07/08 11:47:33;;;;;;;5.93;3.80;;;32.20;45.70;;;;;;5052932;28;20048;-52
2022/07/08 11:49:59;;;;;;;7.03;4.00;;;32.40;45.30;;;;;;5051441;28;20063;-53
2022/07/08 11:52:27;;;;;;;8.15;4.00;;;31.70;43.20;;;;;;5052694;28;20037;-53
2022/07/08 11:54:54;;;;;;;6.25;4.00;;;31.60;48.80;;;;;;5052792;28;20028;-56
2022/07/08 11:57:20;;;;;;;5.13;3.83;;;32.00;48.00;;;;;;5052327;28;20036;-52
2022/07/08 11:59:47;;;;;;;5.95;3.63;;;31.90;44.60;;;;;;5052063;28;20040;-54
2022/07/08 12:02:18;;;;;;;5.35;3.75;;;31.60;45.10;;;;;;5051378;28;20081;-46
2022/07/08 12:04:46;;;;;;;7.45;4.07;;;31.40;48.00;;;;;;5051668;28;20032;-41
2022/07/08 12:07:39;;;;;;;6.22;3.65;;;31.00;47.00;;;;;;5052652;28;20108;-57
2022/07/08 12:10:06;;;;;;;6.18;3.78;;;30.90;50.60;;;;;;5051295;28;20063;-57
2022/07/08 12:12:33;;;;;;;5.75;3.25;;;31.30;48.30;;;;;;5052329;28;20079;-58
2022/07/08 12:15:14;;;;;;;5.93;3.58;;;31.60;45.90;;;;;;5052033;28;20505;-49
2022/07/08 12:17:39;;;;;;;4.65;3.40;;;31.50;49.00;;;;;;5052178;28;20123;-58
2022/07/08 12:20:06;;;;;;;8.50;4.45;;;31.00;45.50;;;;;;5052152;28;20100;-51
2022/07/08 12:22:48;;;;;;;6.85;4.00;;;30.90;46.80;;;;;;5052052;28;20436;-47
2022/07/08 12:25:19;;;;;;;6.63;4.10;;;30.60;47.30;;;;;;5052033;28;20044;-43
2022/07/08 12:27:57;;;;;;;5.75;3.95;;;30.70;46.10;;;;;;5052041;28;20045;-44
2022/07/08 12:30:30;;;;;;;5.65;3.40;;;30.50;47.40;;;;;;5045823;28;20088;-54
2022/07/08 12:33:01;;;;;;;5.05;3.15;;;30.70;51.20;;;;;;5050629;28;20056;-55
2022/07/08 12:35:33;;;;;;;3.53;2.70;;;31.00;46.50;;;;;;5067301;28;20476;-41
2022/07/08 12:38:04;;;;;;;4.90;3.25;;;31.10;46.10;;;;;;5050551;28;20056;-49
2022/07/08 12:40:37;;;;;;;6.10;3.53;;;31.30;48.70;;;;;;5066179;28;20435;-59
2022/07/08 12:43:04;;;;;;;4.05;2.92;;;31.20;43.30;;;;;;5047975;28;20131;-41
2022/07/08 12:45:31;;;;;;;3.60;2.53;;;30.90;46.90;;;;;;5049087;28;20025;-51
2022/07/08 12:47:57;;;;;;;4.40;2.60;;;30.80;46.40;;;;;;5050694;28;20078;-46